| time (UTC) | temp F | wind direction | speed MPH | gust MPH | rain 1hr in | rain 24hr in | rain mn in | humidity % | barometer mb |
| 20260505210626 | 82 | 114 | 2.0 | 3.0 | 0.00 | 0.00 | 0.00 | 29 | 1006.7 |
| 20260505210123 | 82 | 186 | 1.0 | 1.0 | 0.00 | 0.00 | 0.00 | 30 | 1006.9 |
| 20260505205620 | 82 | 140 | 1.0 | 1.0 | 0.00 | 0.00 | 0.00 | 29 | 1006.9 |
| 20260505205119 | 82 | 220 | 2.0 | 3.0 | 0.00 | 0.00 | 0.00 | 29 | 1006.8 |
| 20260505204615 | 82 | 131 | 0.0 | 0.0 | 0.00 | 0.00 | 0.00 | 29 | 1007.0 |
| 20260505204113 | 83 | 116 | 2.0 | 2.0 | 0.00 | 0.00 | 0.00 | 29 | 1007.1 |
| 20260505203609 | 83 | 122 | 1.0 | 1.0 | 0.00 | 0.00 | 0.00 | 29 | 1007.0 |
| 20260505203107 | 83 | 107 | 1.0 | 2.0 | 0.00 | 0.00 | 0.00 | 28 | 1007.2 |
| 20260505202602 | 83 | 120 | 2.0 | 3.0 | 0.00 | 0.00 | 0.00 | 29 | 1007.2 |
| 20260505202058 | 83 | 153 | 2.0 | 2.0 | 0.00 | 0.00 | 0.00 | 29 | 1007.4 |
| 20260505201555 | 83 | 174 | 3.0 | 4.0 | 0.00 | 0.00 | 0.00 | 29 | 1007.2 |
| 20260505201053 | 82 | 101 | 2.0 | 3.0 | 0.00 | 0.00 | 0.00 | 29 | 1007.1 |
| 20260505200550 | 83 | 126 | 1.0 | 2.0 | 0.00 | 0.00 | 0.00 | 30 | 1007.2 |
| 20260505200047 | 83 | 99 | 0.0 | 1.0 | 0.00 | 0.00 | 0.00 | 30 | 1007.1 |
| 20260505195543 | 83 | 174 | 4.0 | 7.0 | 0.00 | 0.00 | 0.00 | 32 | 1007.2 |
| 20260505195041 | 84 | 130 | 1.0 | 1.0 | 0.00 | 0.00 | 0.00 | 31 | 1007.2 |
| 20260505194538 | 84 | 138 | 1.0 | 2.0 | 0.00 | 0.00 | 0.00 | 30 | 1007.2 |
| 20260505194033 | 84 | 113 | 2.0 | 2.0 | 0.00 | 0.00 | 0.00 | 30 | 1007.5 |
| 20260505193531 | 84 | 192 | 2.0 | 2.0 | 0.00 | 0.00 | 0.00 | 31 | 1007.4 |
| 20260505193028 | 84 | 113 | 1.0 | 1.0 | 0.00 | 0.00 | 0.00 | 31 | 1007.4 |
| 20260505192526 | 84 | 129 | 2.0 | 2.0 | 0.00 | 0.00 | 0.00 | 30 | 1007.5 |
| 20260505192024 | 84 | 130 | 2.0 | 3.0 | 0.00 | 0.00 | 0.00 | 30 | 1007.6 |
| 20260505191522 | 84 | 101 | 1.0 | 1.0 | 0.00 | 0.00 | 0.00 | 30 | 1007.6 |
| 20260505191020 | 84 | 143 | 3.0 | 3.0 | 0.00 | 0.00 | 0.00 | 30 | 1007.7 |
| 20260505190514 | 83 | 166 | 2.0 | 3.0 | 0.00 | 0.00 | 0.00 | 30 | 1007.8 |
| 20260505190010 | 84 | 153 | 2.0 | 2.0 | 0.00 | 0.00 | 0.00 | 32 | 1008.0 |
| 20260505185507 | 83 | 103 | 0.0 | 1.0 | 0.00 | 0.00 | 0.00 | 31 | 1007.7 |
| 20260505185003 | 82 | 97 | 1.0 | 2.0 | 0.00 | 0.00 | 0.00 | 32 | 1007.9 |
| 20260505184500 | 82 | 122 | 2.0 | 2.0 | 0.00 | 0.00 | 0.00 | 32 | 1007.9 |
| 20260505183957 | 83 | 114 | 1.0 | 1.0 | 0.00 | 0.00 | 0.00 | 32 | 1008.3 |
| 20260505183454 | 83 | 94 | 1.0 | 1.0 | 0.00 | 0.00 | 0.00 | 33 | 1008.3 |
| 20260505182950 | 83 | 179 | 2.0 | 2.0 | 0.00 | 0.00 | 0.00 | 34 | 1008.4 |
| 20260505182447 | 83 | 145 | 1.0 | 2.0 | 0.00 | 0.00 | 0.00 | 35 | 1008.3 |
| 20260505181943 | 84 | 92 | 2.0 | 2.0 | 0.00 | 0.00 | 0.00 | 34 | 1008.3 |
| 20260505181441 | 83 | 96 | 0.0 | 1.0 | 0.00 | 0.00 | 0.00 | 34 | 1008.2 |
| 20260505180938 | 84 | 172 | 1.0 | 2.0 | 0.00 | 0.00 | 0.00 | 34 | 1008.4 |
| 20260505180434 | 83 | 111 | 1.0 | 2.0 | 0.00 | 0.00 | 0.00 | 35 | 1008.4 |
| 20260505175931 | 83 | 105 | 1.0 | 2.0 | 0.00 | 0.00 | 0.00 | 35 | 1008.4 |
| 20260505175427 | 82 | 183 | 2.0 | 4.0 | 0.00 | 0.00 | 0.00 | 34 | 1008.3 |
| 20260505174924 | 83 | 160 | 2.0 | 3.0 | 0.00 | 0.00 | 0.00 | 35 | 1008.5 |
| 20260505174422 | 82 | 141 | 2.0 | 2.0 | 0.00 | 0.00 | 0.00 | 36 | 1008.7 |
| 20260505173917 | 82 | 134 | 2.0 | 3.0 | 0.00 | 0.00 | 0.00 | 36 | 1008.8 |
| 20260505173414 | 81 | 138 | 1.0 | 1.0 | 0.00 | 0.00 | 0.00 | 37 | 1008.7 |
| 20260505172911 | 82 | 116 | 1.0 | 2.0 | 0.00 | 0.00 | 0.00 | 37 | 1008.9 |
| 20260505172409 | 82 | 109 | 1.0 | 2.0 | 0.00 | 0.00 | 0.00 | 38 | 1008.8 |
| 20260505171908 | 81 | 104 | 0.0 | 0.0 | 0.00 | 0.00 | 0.00 | 41 | 1008.8 |
| 20260505171405 | 80 | 164 | 1.0 | 1.0 | 0.00 | 0.00 | 0.00 | 39 | 1009.0 |
| 20260505170902 | 80 | 153 | 1.0 | 1.0 | 0.00 | 0.00 | 0.00 | 39 | 1009.0 |
| 20260505170359 | 80 | 108 | 0.0 | 0.0 | 0.00 | 0.00 | 0.00 | 40 | 1009.2 |
| 20260505165854 | 80 | 93 | 0.0 | 0.0 | 0.00 | 0.00 | 0.00 | 40 | 1009.3 |
| 20260505165350 | 80 | 120 | 2.0 | 2.0 | 0.00 | 0.00 | 0.00 | 40 | 1009.2 |
| 20260505164846 | 80 | 109 | 1.0 | 2.0 | 0.00 | 0.00 | 0.00 | 41 | 1009.3 |
| 20260505164342 | 80 | 125 | 0.0 | 1.0 | 0.00 | 0.00 | 0.00 | 40 | 1009.4 |
| 20260505163841 | 79 | 118 | 1.0 | 1.0 | 0.00 | 0.00 | 0.00 | 42 | 1009.3 |
| 20260505163339 | 80 | 104 | 0.0 | 1.0 | 0.00 | 0.00 | 0.00 | 41 | 1009.5 |
| 20260505162838 | 79 | 115 | 1.0 | 1.0 | 0.00 | 0.00 | 0.00 | 43 | 1009.6 |
| 20260505162333 | 78 | 107 | 0.0 | 0.0 | 0.00 | 0.00 | 0.00 | 43 | 1009.5 |
| 20260505161831 | 78 | 173 | 3.0 | 6.0 | 0.00 | 0.00 | 0.00 | 43 | 1009.7 |
| 20260505161328 | 78 | 106 | 0.0 | 1.0 | 0.00 | 0.00 | 0.00 | 43 | 1009.7 |
| 20260505160825 | 77 | 114 | 1.0 | 1.0 | 0.00 | 0.00 | 0.00 | 44 | 1009.9 |
| 20260505160323 | 77 | 140 | 1.0 | 2.0 | 0.00 | 0.00 | 0.00 | 45 | 1009.8 |
| 20260505153301 | 75 | 147 | 2.0 | 2.0 | 0.00 | 0.00 | 0.00 | 46 | 1010.2 |
| 20260505152759 | 75 | 110 | 0.0 | 0.0 | 0.00 | 0.00 | 0.00 | 47 | 1010.2 |
| 20260505152256 | 75 | 113 | 0.0 | 0.0 | 0.00 | 0.00 | 0.00 | 47 | 1010.5 |
| 20260505151755 | 75 | 111 | 1.0 | 1.0 | 0.00 | 0.00 | 0.00 | 47 | 1010.3 |
| 20260505151253 | 74 | 122 | 0.0 | 0.0 | 0.00 | 0.00 | 0.00 | 47 | 1010.2 |
| 20260505150750 | 74 | 117 | 1.0 | 1.0 | 0.00 | 0.00 | 0.00 | 47 | 1010.3 |
| 20260505150247 | 74 | 139 | 1.0 | 2.0 | 0.00 | 0.00 | 0.00 | 47 | 1010.1 |
| 20260505140211 | 70 | 99 | 0.0 | 0.0 | 0.00 | 0.00 | 0.00 | 54 | 1010.6 |
| 20260505130135 | 64 | 111 | 0.0 | 0.0 | 0.00 | 0.00 | 0.00 | 65 | 1010.2 |
| 20260505124624 | 63 | 96 | 0.0 | 0.0 | 0.00 | 0.00 | 0.00 | 67 | 1010.0 |
| 20260505124121 | 62 | 96 | 0.0 | 0.0 | 0.00 | 0.00 | 0.00 | 68 | 1010.1 |
| 20260505123617 | 62 | 96 | 0.0 | 0.0 | 0.00 | 0.00 | 0.00 | 69 | 1010.0 |
| 20260505123114 | 62 | 96 | 0.0 | 0.0 | 0.00 | 0.00 | 0.00 | 70 | 1010.1 |
| 20260505122611 | 62 | 96 | 0.0 | 0.0 | 0.00 | 0.00 | 0.00 | 71 | 1010.1 |
| 20260505122108 | 61 | 96 | 0.0 | 0.0 | 0.00 | 0.00 | 0.00 | 73 | 1010.1 |
| 20260505121604 | 60 | 96 | 0.0 | 0.0 | 0.00 | 0.00 | 0.00 | 75 | 1010.2 |
| 20260505121101 | 60 | 96 | 0.0 | 0.0 | 0.00 | 0.00 | 0.00 | 75 | 1010.3 |
| 20260505120557 | 60 | 96 | 0.0 | 0.0 | 0.00 | 0.00 | 0.00 | 75 | 1010.2 |
| 20260505120053 | 59 | 96 | 0.0 | 0.0 | 0.00 | 0.00 | 0.00 | 76 | 1010.4 |
| 20260505115547 | 58 | 97 | 0.0 | 0.0 | 0.00 | 0.00 | 0.00 | 77 | 1010.1 |
| 20260505115045 | 58 | 97 | 0.0 | 0.0 | 0.00 | 0.00 | 0.00 | 78 | 1010.2 |
| 20260505114542 | 58 | 97 | 0.0 | 0.0 | 0.00 | 0.00 | 0.00 | 77 | 1010.1 |
| 20260505114038 | 58 | 97 | 0.0 | 0.0 | 0.00 | 0.00 | 0.00 | 77 | 1010.0 |
| 20260505113535 | 57 | 97 | 0.0 | 0.0 | 0.00 | 0.00 | 0.00 | 78 | 1010.0 |
| 20260505113032 | 56 | 97 | 0.0 | 0.0 | 0.00 | 0.00 | 0.00 | 79 | 1009.9 |
| 20260505112529 | 55 | 97 | 0.0 | 0.0 | 0.00 | 0.00 | 0.00 | 82 | 1009.8 |
| 20260505112027 | 55 | 97 | 0.0 | 0.0 | 0.00 | 0.00 | 0.00 | 83 | 1009.7 |
| 20260505111526 | 55 | 97 | 0.0 | 0.0 | 0.00 | 0.00 | 0.00 | 83 | 1009.7 |
| 20260505111022 | 56 | 97 | 0.0 | 0.0 | 0.00 | 0.00 | 0.00 | 82 | 1009.6 |
| 20260505110519 | 56 | 97 | 0.0 | 0.0 | 0.00 | 0.00 | 0.00 | 80 | 1009.9 |
| 20260505101951 | 52 | 96 | 0.0 | 0.0 | 0.00 | 0.00 | 0.00 | 85 | 1009.7 |
| 20260505101449 | 52 | 96 | 0.0 | 0.0 | 0.00 | 0.00 | 0.00 | 85 | 1009.7 |
| 20260505100945 | 51 | 96 | 0.0 | 0.0 | 0.00 | 0.00 | 0.00 | 85 | 1009.6 |
| 20260505100443 | 52 | 96 | 0.0 | 0.0 | 0.00 | 0.00 | 0.00 | 85 | 1009.6 |
| 20260505095939 | 52 | 96 | 0.0 | 0.0 | 0.00 | 0.00 | 0.00 | 84 | 1009.7 |
| 20260505095436 | 52 | 96 | 0.0 | 0.0 | 0.00 | 0.00 | 0.00 | 84 | 1009.7 |
| 20260505094932 | 52 | 96 | 0.0 | 0.0 | 0.00 | 0.00 | 0.00 | 84 | 1009.6 |
| 20260505094429 | 52 | 96 | 0.0 | 0.0 | 0.00 | 0.00 | 0.00 | 83 | 1009.5 |
| 20260505093925 | 52 | 96 | 0.0 | 0.0 | 0.00 | 0.00 | 0.00 | 83 | 1009.4 |
| 20260505093422 | 52 | 96 | 0.0 | 0.0 | 0.00 | 0.00 | 0.00 | 83 | 1009.3 |
| 20260505092919 | 53 | 96 | 0.0 | 0.0 | 0.00 | 0.00 | 0.00 | 83 | 1009.2 |
| 20260505092417 | 53 | 96 | 0.0 | 0.0 | 0.00 | 0.00 | 0.00 | 82 | 1009.2 |
| 20260505091914 | 52 | 96 | 0.0 | 0.0 | 0.00 | 0.00 | 0.00 | 83 | 1009.0 |
| 20260505091412 | 52 | 96 | 0.0 | 0.0 | 0.00 | 0.00 | 0.00 | 83 | 1009.0 |
| 20260505090909 | 52 | 96 | 0.0 | 0.0 | 0.00 | 0.00 | 0.00 | 84 | 1009.0 |
| 20260505090408 | 52 | 96 | 0.0 | 0.0 | 0.00 | 0.00 | 0.00 | 84 | 1009.3 |
| 20260505085904 | 51 | 96 | 0.0 | 0.0 | 0.00 | 0.00 | 0.00 | 84 | 1008.9 |
| 20260505085402 | 52 | 96 | 0.0 | 0.0 | 0.00 | 0.00 | 0.00 | 84 | 1008.9 |
| 20260505084900 | 52 | 96 | 0.0 | 0.0 | 0.00 | 0.00 | 0.00 | 83 | 1008.9 |
| 20260505084358 | 52 | 96 | 0.0 | 0.0 | 0.00 | 0.00 | 0.00 | 83 | 1009.3 |
| 20260505083856 | 52 | 96 | 0.0 | 0.0 | 0.00 | 0.00 | 0.00 | 82 | 1009.2 |
| 20260505083353 | 52 | 96 | 0.0 | 0.0 | 0.00 | 0.00 | 0.00 | 82 | 1009.0 |
| 20260505082849 | 52 | 94 | 0.0 | 0.0 | 0.00 | 0.00 | 0.00 | 82 | 1009.0 |
| 20260505082345 | 52 | 96 | 0.0 | 0.0 | 0.00 | 0.00 | 0.00 | 82 | 1009.0 |
| 20260505081842 | 52 | 96 | 0.0 | 0.0 | 0.00 | 0.00 | 0.00 | 82 | 1009.2 |
| 20260505081339 | 52 | 93 | 0.0 | 0.0 | 0.00 | 0.00 | 0.00 | 82 | 1009.2 |
| 20260505080836 | 52 | 91 | 0.0 | 0.0 | 0.00 | 0.00 | 0.00 | 81 | 1009.2 |
| 20260505080331 | 52 | 91 | 0.0 | 0.0 | 0.00 | 0.00 | 0.00 | 81 | 1009.0 |
| 20260505075827 | 52 | 89 | 0.0 | 0.0 | 0.00 | 0.00 | 0.00 | 81 | 1009.2 |
| 20260505075324 | 52 | 94 | 0.0 | 0.0 | 0.00 | 0.00 | 0.00 | 81 | 1009.3 |
| 20260505074822 | 53 | 94 | 0.0 | 0.0 | 0.00 | 0.00 | 0.00 | 80 | 1009.2 |
| 20260505074319 | 53 | 94 | 0.0 | 0.0 | 0.00 | 0.00 | 0.00 | 80 | 1009.2 |
| 20260505073816 | 52 | 94 | 0.0 | 0.0 | 0.00 | 0.00 | 0.00 | 80 | 1009.0 |
| 20260505073314 | 53 | 94 | 0.0 | 0.0 | 0.00 | 0.00 | 0.00 | 79 | 1009.3 |
| 20260505072811 | 53 | 94 | 0.0 | 0.0 | 0.00 | 0.00 | 0.00 | 79 | 1009.2 |
| 20260505072307 | 53 | 93 | 0.0 | 0.0 | 0.00 | 0.00 | 0.00 | 78 | 1009.3 |
| 20260505071803 | 53 | 93 | 0.0 | 0.0 | 0.00 | 0.00 | 0.00 | 78 | 1009.2 |
| 20260505071259 | 53 | 90 | 0.0 | 0.0 | 0.00 | 0.00 | 0.00 | 77 | 1009.4 |
| 20260505070757 | 53 | 99 | 0.0 | 0.0 | 0.00 | 0.00 | 0.00 | 77 | 1009.2 |
| 20260505070254 | 54 | 97 | 0.0 | 0.0 | 0.00 | 0.00 | 0.00 | 76 | 1009.3 |
| 20260505065749 | 54 | 101 | 0.0 | 0.0 | 0.00 | 0.00 | 0.00 | 75 | 1009.4 |
| 20260505065246 | 55 | 101 | 0.0 | 0.0 | 0.00 | 0.00 | 0.00 | 75 | 1009.3 |
| 20260505064743 | 55 | 105 | 0.0 | 0.0 | 0.00 | 0.00 | 0.00 | 74 | 1009.3 |
| 20260505064240 | 55 | 105 | 0.0 | 0.0 | 0.00 | 0.00 | 0.00 | 74 | 1009.2 |
| 20260505063738 | 54 | 105 | 0.0 | 0.0 | 0.00 | 0.00 | 0.00 | 74 | 1009.3 |
| 20260505063234 | 54 | 110 | 0.0 | 0.0 | 0.00 | 0.00 | 0.00 | 74 | 1009.5 |
| 20260505062730 | 54 | 110 | 0.0 | 0.0 | 0.00 | 0.00 | 0.00 | 74 | 1009.5 |
| 20260505062228 | 54 | 101 | 0.0 | 0.0 | 0.00 | 0.00 | 0.00 | 74 | 1009.4 |
| 20260505061725 | 54 | 101 | 0.0 | 0.0 | 0.00 | 0.00 | 0.00 | 74 | 1009.5 |
| 20260505061223 | 54 | 101 | 0.0 | 0.0 | 0.00 | 0.00 | 0.00 | 73 | 1009.5 |
| 20260505060720 | 54 | 101 | 0.0 | 0.0 | 0.00 | 0.00 | 0.00 | 72 | 1009.4 |
| 20260505060217 | 55 | 101 | 0.0 | 0.0 | 0.00 | 0.00 | 0.00 | 71 | 1009.5 |
| 20260505055712 | 55 | 101 | 0.0 | 0.0 | 0.00 | 0.00 | 0.00 | 71 | 1009.5 |
| 20260505055209 | 55 | 101 | 0.0 | 0.0 | 0.00 | 0.00 | 0.00 | 70 | 1009.4 |
| 20260505054706 | 55 | 101 | 0.0 | 0.0 | 0.00 | 0.00 | 0.00 | 70 | 1009.5 |
| 20260505054204 | 55 | 101 | 0.0 | 0.0 | 0.00 | 0.00 | 0.00 | 69 | 1009.7 |
| 20260505053702 | 56 | 101 | 0.0 | 0.0 | 0.00 | 0.00 | 0.00 | 69 | 1009.6 |
| 20260505053158 | 56 | 101 | 0.0 | 0.0 | 0.00 | 0.00 | 0.00 | 68 | 1009.6 |
| 20260505052655 | 56 | 101 | 0.0 | 0.0 | 0.00 | 0.00 | 0.00 | 68 | 1009.8 |
| 20260505052152 | 56 | 106 | 0.0 | 0.0 | 0.00 | 0.00 | 0.00 | 68 | 1009.8 |
| 20260505051649 | 56 | 106 | 0.0 | 0.0 | 0.00 | 0.00 | 0.00 | 67 | 1009.7 |
| 20260505051147 | 56 | 106 | 0.0 | 0.0 | 0.00 | 0.00 | 0.00 | 67 | 1009.8 |
| 20260505050645 | 57 | 106 | 0.0 | 0.0 | 0.00 | 0.00 | 0.00 | 66 | 1009.9 |
| 20260505050143 | 57 | 106 | 0.0 | 0.0 | 0.00 | 0.00 | 0.00 | 65 | 1010.0 |
| 20260505041613 | 59 | 111 | 0.0 | 0.0 | 0.00 | 0.00 | 0.00 | 58 | 1009.9 |
| 20260505041110 | 59 | 109 | 0.0 | 0.0 | 0.00 | 0.00 | 0.00 | 58 | 1009.8 |
| 20260505040607 | 59 | 104 | 0.0 | 0.0 | 0.00 | 0.00 | 0.00 | 58 | 1010.0 |
| 20260505040104 | 59 | 105 | 0.0 | 0.0 | 0.00 | 0.00 | 0.00 | 57 | 1010.0 |
| 20260505035600 | 59 | 105 | 0.0 | 0.0 | 0.00 | 0.00 | 0.00 | 57 | 1009.8 |
| 20260505035057 | 59 | 105 | 0.0 | 0.0 | 0.00 | 0.00 | 0.00 | 58 | 1010.0 |
| 20260505034553 | 59 | 105 | 0.0 | 0.0 | 0.00 | 0.00 | 0.00 | 57 | 1010.0 |
| 20260505034050 | 59 | 105 | 0.0 | 0.0 | 0.00 | 0.00 | 0.00 | 56 | 1009.9 |
| 20260505033547 | 59 | 105 | 0.0 | 0.0 | 0.00 | 0.00 | 0.00 | 56 | 1009.9 |
| 20260505033046 | 60 | 103 | 0.0 | 0.0 | 0.00 | 0.00 | 0.00 | 54 | 1010.1 |
| 20260505032543 | 60 | 103 | 0.0 | 0.0 | 0.00 | 0.00 | 0.00 | 53 | 1010.1 |
| 20260505032039 | 61 | 112 | 0.0 | 0.0 | 0.00 | 0.00 | 0.00 | 52 | 1010.0 |
| 20260505031537 | 61 | 124 | 0.0 | 0.0 | 0.00 | 0.00 | 0.00 | 52 | 1010.2 |
| 20260505031033 | 62 | 109 | 0.0 | 0.0 | 0.00 | 0.00 | 0.00 | 51 | 1010.3 |
| 20260505030530 | 62 | 109 | 0.0 | 0.0 | 0.00 | 0.00 | 0.00 | 50 | 1010.3 |
| 20260505030026 | 62 | 109 | 0.0 | 0.0 | 0.00 | 0.00 | 0.00 | 49 | 1010.2 |
| 20260505025522 | 62 | 107 | 0.0 | 0.0 | 0.00 | 0.00 | 0.00 | 48 | 1010.2 |
| 20260505025021 | 63 | 112 | 0.0 | 0.0 | 0.00 | 0.00 | 0.00 | 48 | 1010.3 |
| 20260505024518 | 63 | 112 | 0.0 | 0.0 | 0.00 | 0.00 | 0.00 | 47 | 1010.1 |
| 20260505024015 | 63 | 107 | 0.0 | 0.0 | 0.00 | 0.00 | 0.00 | 47 | 1010.1 |
| 20260505023512 | 63 | 104 | 0.0 | 0.0 | 0.00 | 0.00 | 0.00 | 46 | 1010.2 |
| 20260505023009 | 63 | 113 | 0.0 | 0.0 | 0.00 | 0.00 | 0.00 | 45 | 1010.2 |
| 20260505022507 | 63 | 117 | 0.0 | 0.0 | 0.00 | 0.00 | 0.00 | 45 | 1010.3 |
| 20260505022004 | 63 | 115 | 0.0 | 0.0 | 0.00 | 0.00 | 0.00 | 44 | 1010.3 |
| 20260505021500 | 63 | 118 | 0.0 | 0.0 | 0.00 | 0.00 | 0.00 | 45 | 1010.4 |
| 20260505020956 | 63 | 111 | 0.0 | 0.0 | 0.00 | 0.00 | 0.00 | 45 | 1010.3 |
| 20260505020451 | 64 | 114 | 0.0 | 0.0 | 0.00 | 0.00 | 0.00 | 45 | 1010.1 |
| 20260505015948 | 64 | 114 | 0.0 | 0.0 | 0.00 | 0.00 | 0.00 | 44 | 1010.3 |
| 20260505015446 | 64 | 114 | 0.0 | 0.0 | 0.00 | 0.00 | 0.00 | 44 | 1010.3 |
| 20260505014943 | 64 | 106 | 0.0 | 0.0 | 0.00 | 0.00 | 0.00 | 44 | 1010.1 |
| 20260505014439 | 64 | 111 | 0.0 | 0.0 | 0.00 | 0.00 | 0.00 | 45 | 1010.2 |
| 20260505013937 | 64 | 108 | 0.0 | 0.0 | 0.00 | 0.00 | 0.00 | 45 | 1010.2 |
| 20260505013434 | 64 | 106 | 0.0 | 0.0 | 0.00 | 0.00 | 0.00 | 45 | 1010.1 |
| 20260505012931 | 64 | 106 | 0.0 | 0.0 | 0.00 | 0.00 | 0.00 | 44 | 1010.2 |
| 20260505012429 | 64 | 106 | 0.0 | 0.0 | 0.00 | 0.00 | 0.00 | 45 | 1010.0 |
| 20260505011925 | 63 | 108 | 0.0 | 0.0 | 0.00 | 0.00 | 0.00 | 44 | 1009.9 |
| 20260505011422 | 63 | 106 | 0.0 | 0.0 | 0.00 | 0.00 | 0.00 | 45 | 1009.8 |
| 20260505010919 | 64 | 108 | 0.0 | 0.0 | 0.00 | 0.00 | 0.00 | 45 | 1009.8 |
| 20260505010414 | 64 | 108 | 0.0 | 0.0 | 0.00 | 0.00 | 0.00 | 44 | 1009.8 |
| 20260505005910 | 65 | 108 | 0.0 | 0.0 | 0.00 | 0.00 | 0.00 | 43 | 1009.8 |
| 20260505005408 | 65 | 110 | 0.0 | 0.0 | 0.00 | 0.00 | 0.00 | 44 | 1009.6 |
| 20260505004905 | 65 | 110 | 0.0 | 0.0 | 0.00 | 0.00 | 0.00 | 44 | 1009.6 |
| 20260505004401 | 66 | 112 | 0.0 | 1.0 | 0.00 | 0.00 | 0.00 | 43 | 1009.4 |
| 20260505003858 | 66 | 113 | 0.0 | 0.0 | 0.00 | 0.00 | 0.00 | 42 | 1009.5 |
| 20260505003355 | 66 | 110 | 0.0 | 0.0 | 0.00 | 0.00 | 0.00 | 42 | 1009.5 |
| 20260505002852 | 66 | 105 | 0.0 | 0.0 | 0.00 | 0.00 | 0.00 | 41 | 1009.2 |
| 20260505002348 | 67 | 113 | 0.0 | 0.0 | 0.00 | 0.00 | 0.00 | 40 | 1009.0 |
| 20260505001847 | 67 | 107 | 0.0 | 0.0 | 0.00 | 0.00 | 0.00 | 40 | 1009.0 |
| 20260505001344 | 67 | 110 | 0.0 | 0.0 | 0.00 | 0.00 | 0.00 | 39 | 1008.9 |
| 20260505000841 | 68 | 112 | 0.0 | 0.0 | 0.00 | 0.00 | 0.00 | 40 | 1008.8 |
| 20260505000338 | 68 | 104 | 0.0 | 1.0 | 0.00 | 0.00 | 0.00 | 38 | 1008.9 |
| 20260504235835 | 68 | 110 | 0.0 | 0.0 | 0.00 | 0.00 | 0.00 | 39 | 1008.7 |
| 20260504235332 | 68 | 111 | 0.0 | 0.0 | 0.00 | 0.00 | 0.00 | 38 | 1008.5 |
| 20260504234828 | 68 | 111 | 0.0 | 1.0 | 0.00 | 0.00 | 0.00 | 38 | 1008.5 |
| 20260504234327 | 68 | 104 | 0.0 | 0.0 | 0.00 | 0.00 | 0.00 | 38 | 1008.4 |
| 20260504233823 | 69 | 105 | 0.0 | 0.0 | 0.00 | 0.00 | 0.00 | 37 | 1008.6 |
| 20260504233318 | 69 | 106 | 0.0 | 0.0 | 0.00 | 0.00 | 0.00 | 37 | 1008.3 |
| 20260504232815 | 69 | 129 | 0.0 | 1.0 | 0.00 | 0.00 | 0.00 | 36 | 1008.3 |
| 20260504232313 | 69 | 94 | 1.0 | 1.0 | 0.00 | 0.00 | 0.00 | 37 | 1008.5 |
| 20260504231809 | 69 | 113 | 0.0 | 0.0 | 0.00 | 0.00 | 0.00 | 36 | 1008.2 |
| 20260504231306 | 70 | 97 | 0.0 | 0.0 | 0.00 | 0.00 | 0.00 | 36 | 1008.0 |
| 20260504230802 | 70 | 131 | 1.0 | 1.0 | 0.00 | 0.00 | 0.00 | 35 | 1008.3 |
| 20260504230300 | 70 | 101 | 1.0 | 1.0 | 0.00 | 0.00 | 0.00 | 35 | 1007.9 |
| 20260504225759 | 70 | 114 | 0.0 | 1.0 | 0.00 | 0.00 | 0.00 | 35 | 1008.1 |
| 20260504225254 | 70 | 110 | 0.0 | 1.0 | 0.00 | 0.00 | 0.00 | 35 | 1008.0 |
| 20260504224752 | 70 | 101 | 0.0 | 0.0 | 0.00 | 0.00 | 0.00 | 35 | 1008.0 |
| 20260504224249 | 71 | 106 | 0.0 | 0.0 | 0.00 | 0.00 | 0.00 | 35 | 1008.0 |
| 20260504223745 | 71 | 118 | 1.0 | 1.0 | 0.00 | 0.00 | 0.00 | 35 | 1008.1 |
| 20260504223241 | 71 | 111 | 0.0 | 1.0 | 0.00 | 0.00 | 0.00 | 34 | 1008.2 |
| 20260504222738 | 71 | 109 | 0.0 | 1.0 | 0.00 | 0.00 | 0.00 | 34 | 1008.4 |
| 20260504222235 | 71 | 104 | 0.0 | 1.0 | 0.00 | 0.00 | 0.00 | 34 | 1008.2 |
| 20260504221732 | 72 | 127 | 1.0 | 2.0 | 0.00 | 0.00 | 0.00 | 33 | 1008.1 |
| 20260504221229 | 72 | 113 | 0.0 | 1.0 | 0.00 | 0.00 | 0.00 | 33 | 1008.2 |
| 20260504220726 | 72 | 123 | 0.0 | 1.0 | 0.00 | 0.00 | 0.00 | 33 | 1008.1 |
| 20260504220223 | 72 | 117 | 0.0 | 1.0 | 0.00 | 0.00 | 0.00 | 32 | 1008.3 |
| 20260504215720 | 73 | 120 | 0.0 | 1.0 | 0.00 | 0.00 | 0.00 | 32 | 1008.3 |
| 20260504215217 | 72 | 113 | 0.0 | 0.0 | 0.00 | 0.00 | 0.00 | 33 | 1008.3 |
| 20260504214713 | 72 | 107 | 1.0 | 1.0 | 0.00 | 0.00 | 0.00 | 33 | 1008.4 |
| 20260504214209 | 73 | 101 | 0.0 | 0.0 | 0.00 | 0.00 | 0.00 | 32 | 1008.5 |
| 20260504213706 | 73 | 106 | 1.0 | 1.0 | 0.00 | 0.00 | 0.00 | 32 | 1008.5 |
| 20260504213203 | 72 | 123 | 2.0 | 3.0 | 0.00 | 0.00 | 0.00 | 32 | 1008.5 |
| 20260504212659 | 73 | 144 | 1.0 | 2.0 | 0.00 | 0.00 | 0.00 | 32 | 1008.7 |
| 20260504212156 | 73 | 113 | 0.0 | 1.0 | 0.00 | 0.00 | 0.00 | 33 | 1008.5 |
| 20260504211653 | 73 | 122 | 1.0 | 1.0 | 0.00 | 0.00 | 0.00 | 32 | 1008.5 |
| 20260504211149 | 73 | 136 | 0.0 | 0.0 | 0.00 | 0.00 | 0.00 | 31 | 1008.5 |